Neptune, NJ

6:00 PM EDT on May 27, 2015 (GMT -0400)
Jersey Coast Weather in Bradley Beach | | Change Station
CLOSE
Current Station
Personal Weather Station
Location: Bradley Beach, NJ
Elevation: 15 ft
Nearby Weather Stations

Elev 15 ft 40.20 °N, 74.01 °W | Updated 57 seconds ago

Clear
Clear
64.3 °F
Feels Like 64.3 °F
N
9.0
Wind Variable Wind from South
Gusts 28.0 mph

Today
High -- | Low -- °F
--% Chance of Precip.
Yesterday
High -- | Low -- °F
Precip. -- in
5:31 AM 8:15 PM
Waxing Gibbous, 70% visible
Pressure 30.11 in
Visibility 10.0 miles
Clouds Clear
Dew Point 58 °F
Humidity 79%
Rainfall 0.00 in
Snow Depth Not available.
UV 2 out of 12
Pollen 5.30 out of 12
Air Quality Not available.
Flu Activity Sporadic
METAR KBLM 272155Z AUTO 16008G16KT 10SM CLR 26/18 A3011 RMK AO1 LTG DSNT W

More Conditions Fewer Conditions

Pressure 30.11 in
Visibility 10.0 miles
Clouds Clear
Dew Point 58 °F
Humidity 79%
Rainfall 0.00 in
Snow Depth Not available.
UV 2 out of 12
Pollen 5.30 out of 12
Air Quality Not available.
Flu Activity Sporadic
METAR KBLM 272155Z AUTO 16008G16KT 10SM CLR 26/18 A3011 RMK AO1 LTG DSNT W

More Conditions Fewer Conditions

10-Day Weather Forecast

Almanac

Astronomy

May. 27, 2015 Rise Set
Actual Time
Civil Twilight
Nautical Twilight
Astronomical Twilight
Moon
Length of Visible Light
Length of Day
Tomorrow will be .
, % of the Moon is Illuminated

Today's Extremes

State Highs State Lows

Community

WunderPhotos

Upload Photos

1,824,806 photos uploaded!

WunderBlogs® & News

Nearby

Air Quality

  Air Quality AQ Index Pollutant
Not available.

Snow Depth

Station Depth Elevation

Earthquake Activity

City Distance Mag. Time & Date
Minimum magnitude displayed is 2.5.

Coastal Water Temperatures

Place Temperature

Stations

Nearby Weather Stations

Station Location Temp. Windchill Dew Point Humidity Wind Precip. Elev Updated Type
                   
Severe Thunderstorm Watch
Statement as of 5:46 PM EDT on May 27, 2015


Severe Thunderstorm Watch 227 remains valid until 7 PM EDT this
evening for the following areas

In New Jersey this watch includes 9 counties

In central New Jersey

Mercer Monmouth

In northern New Jersey

Hunterdon Middlesex Morris
Somerset

In southern New Jersey

Burlington Camden Gloucester

In Pennsylvania this watch includes 4 counties

In southeast Pennsylvania

Bucks Delaware Montgomery
Philadelphia

This includes the cities of... Camden... Cherry Hill... Deptford...
Doylestown... East Brunswick... Edison... Flemington... Freehold...
Glassboro... media... Moorestown... Morristown... Mount Holly...
New Brunswick... Norristown... North Brunswick township...
Perth Amboy... Philadelphia... Sayreville... Somerset and Trenton.